createdAt,value
2022-11-26T00:00:52.941Z,92287.03
2022-11-26T00:03:19.476Z,92304.34
2022-11-26T00:05:46.951Z,92338.06
2022-11-26T00:08:30.314Z,92356.75
2022-11-26T00:10:56.805Z,92384.25
2022-11-26T00:13:25.057Z,92403.47
2022-11-26T00:15:51.711Z,92422.13
2022-11-26T00:18:18.310Z,92427.34
2022-11-26T00:20:45.013Z,92443.19
2022-11-26T00:23:25.580Z,92435.38
2022-11-26T00:25:54.411Z,92429.94
2022-11-26T00:28:26.744Z,92436.72
2022-11-26T00:30:55.961Z,92436.72
2022-11-26T00:33:22.994Z,92436.72
2022-11-26T00:35:50.133Z,92432.56
2022-11-26T00:38:18.014Z,92449.63
2022-11-26T00:40:44.396Z,92463.28
2022-11-26T00:43:11.661Z,92473.81
2022-11-26T00:45:38.117Z,92491.44
2022-11-26T00:48:04.527Z,92515.88
2022-11-26T00:50:38.955Z,92514.16
2022-11-26T00:53:05.591Z,92536.41
2022-11-26T00:55:37.244Z,92541.25
2022-11-26T00:58:04.023Z,92556.50
2022-11-26T01:00:31.535Z,92578.75
2022-11-26T01:02:58.005Z,92592.22
2022-11-26T01:05:25.509Z,92605.03
2022-11-26T01:07:52.332Z,92610.69
2022-11-26T01:10:24.563Z,92618.34
2022-11-26T01:12:51.255Z,92626.38
2022-11-26T01:15:18.438Z,92635.41
2022-11-26T01:17:44.949Z,92631.22
2022-11-26T01:20:30.519Z,92654.88
2022-11-26T01:22:58.056Z,92666.50
2022-11-26T01:25:25.151Z,92671.31
2022-11-26T01:27:51.846Z,92669.31
2022-11-26T01:30:23.876Z,92676.34
2022-11-26T01:32:50.367Z,92700.19
2022-11-26T01:35:17.705Z,92704.00
2022-11-26T01:37:44.288Z,92702.19
2022-11-26T01:40:29.272Z,92701.63
2022-11-26T01:43:28.826Z,92707.44
2022-11-26T01:45:55.988Z,92705.06
2022-11-26T01:48:23.480Z,92717.47
2022-11-26T01:51:06.337Z,92723.06
2022-11-26T01:53:38.816Z,92725.09
2022-11-26T01:56:27.206Z,92730.72
2022-11-26T01:59:00.580Z,92725.50
2022-11-26T02:01:26.977Z,92721.94
2022-11-26T02:03:58.071Z,92723.50
2022-11-26T02:06:27.988Z,92713.13
2022-11-26T02:08:54.648Z,92708.69
2022-11-26T02:11:22.796Z,92706.91
2022-11-26T02:13:51.895Z,92704.88
2022-11-26T02:16:25.254Z,92687.31
2022-11-26T02:19:25.463Z,92679.50
2022-11-26T02:22:28.908Z,92656.28
2022-11-26T02:25:09.571Z,92657.84
2022-11-26T02:28:03.685Z,92655.84
2022-11-26T02:30:31.720Z,92636.22
2022-11-26T02:33:09.007Z,92634.19
2022-11-26T02:35:45.385Z,92652.59
2022-11-26T02:38:24.952Z,92646.63
2022-11-26T02:40:51.802Z,92651.44
2022-11-26T02:43:18.287Z,92654.47
2022-11-26T02:45:47.194Z,92663.72
2022-11-26T02:48:16.897Z,92670.28
2022-11-26T02:50:46.015Z,92673.28
2022-11-26T02:53:12.414Z,92673.09
2022-11-26T02:55:41.587Z,92675.88
2022-11-26T02:58:07.920Z,92686.69
2022-11-26T03:00:34.627Z,92690.31
2022-11-26T03:03:08.567Z,92708.34
2022-11-26T03:05:35.677Z,92708.34
2022-11-26T03:08:02.024Z,92711.53
2022-11-26T03:10:28.701Z,92717.16
2022-11-26T03:12:55.076Z,92720.31
2022-11-26T03:15:21.482Z,92727.53
2022-11-26T03:17:47.989Z,92729.72
2022-11-26T03:20:14.622Z,92718.31
2022-11-26T03:22:41.224Z,92723.06
2022-11-26T03:25:08.178Z,92716.91
2022-11-26T03:27:35.615Z,92707.47
2022-11-26T03:30:02.148Z,92702.28
2022-11-26T03:32:28.675Z,92702.09
2022-11-26T03:34:55.020Z,92700.50
2022-11-26T03:37:21.408Z,92695.88
2022-11-26T03:39:47.748Z,92685.47
2022-11-26T03:42:14.127Z,92682.88
2022-11-26T03:44:40.631Z,92687.72
2022-11-26T03:47:07.146Z,92700.69
2022-11-26T03:49:33.609Z,92701.72
2022-11-26T03:52:00.000Z,92711.94
2022-11-26T03:54:26.400Z,92718.72
2022-11-26T03:56:52.754Z,92732.56
2022-11-26T03:59:19.125Z,92743.97
2022-11-26T04:01:45.680Z,92757.94
2022-11-26T04:04:12.090Z,92762.56
2022-11-26T04:06:38.558Z,92777.53
2022-11-26T04:09:04.944Z,92786.78
2022-11-26T04:11:31.377Z,92811.56
2022-11-26T04:13:57.754Z,92818.75
2022-11-26T04:16:24.119Z,92827.56
2022-11-26T04:18:50.572Z,92831.16
2022-11-26T04:21:16.987Z,92850.75
2022-11-26T04:23:43.375Z,92859.75
2022-11-26T04:26:09.740Z,92873.13
2022-11-26T04:28:36.185Z,92901.13
2022-11-26T04:31:02.551Z,92935.50
2022-11-26T04:33:28.913Z,93014.94
2022-11-26T04:35:55.434Z,93061.25
2022-11-26T04:38:25.718Z,93085.16
2022-11-26T04:40:52.553Z,93086.56
2022-11-26T04:43:18.931Z,93146.59
2022-11-26T04:45:45.397Z,93228.28
2022-11-26T04:48:11.788Z,93276.09
2022-11-26T04:50:38.186Z,93316.72
2022-11-26T04:53:04.587Z,93362.19
2022-11-26T04:55:30.939Z,93394.81
2022-11-26T04:57:57.289Z,93437.81
2022-11-26T05:00:23.667Z,93460.78
2022-11-26T05:02:50.127Z,93486.53
2022-11-26T05:05:16.608Z,93473.69
2022-11-26T05:07:42.995Z,93469.56
2022-11-26T05:10:09.978Z,93478.34
2022-11-26T05:12:36.365Z,93515.75
2022-11-26T05:15:03.055Z,93549.53
2022-11-26T05:17:29.425Z,93586.19
2022-11-26T05:19:55.760Z,93628.75
2022-11-26T05:22:22.133Z,93692.34
2022-11-26T05:24:48.472Z,93740.84
2022-11-26T05:27:14.832Z,93785.41
2022-11-26T05:29:41.221Z,93808.38
2022-11-26T05:32:07.650Z,93854.72
2022-11-26T05:34:34.022Z,93872.53
2022-11-26T05:37:00.360Z,93921.47
2022-11-26T05:39:26.733Z,93948.19
2022-11-26T05:41:53.226Z,93968.44
2022-11-26T05:44:19.568Z,94003.44
2022-11-26T05:46:45.934Z,94033.22
2022-11-26T05:49:12.321Z,94080.50
2022-11-26T05:51:38.669Z,94109.16
2022-11-26T05:54:05.134Z,94157.22
2022-11-26T05:56:31.480Z,94199.28
2022-11-26T05:58:57.848Z,94236.00
2022-11-26T06:01:24.195Z,94277.25
2022-11-26T06:03:50.803Z,94313.81
2022-11-26T06:06:17.278Z,94337.91
2022-11-26T06:08:43.662Z,94373.66
2022-11-26T06:11:12.586Z,94389.03
2022-11-26T06:13:39.360Z,94405.03
2022-11-26T06:16:06.192Z,94436.41
2022-11-26T06:18:32.573Z,94462.59
2022-11-26T06:21:02.893Z,94498.63
2022-11-26T06:23:29.244Z,94547.72
2022-11-26T06:25:55.632Z,94587.78
2022-11-26T06:28:21.973Z,94639.34
2022-11-26T06:30:48.403Z,94681.81
2022-11-26T06:33:14.841Z,94721.06
2022-11-26T06:35:41.205Z,94745.56
2022-11-26T06:38:07.940Z,94782.06
2022-11-26T06:40:34.414Z,94811.34
2022-11-26T06:43:00.734Z,94835.72
2022-11-26T06:45:27.209Z,94855.59
2022-11-26T06:47:53.681Z,94856.16
2022-11-26T06:50:21.354Z,94846.19
2022-11-26T06:52:51.772Z,94836.25
2022-11-26T06:55:18.204Z,94833.78
2022-11-26T06:57:44.554Z,94839.78
2022-11-26T07:00:11.609Z,94836.91
2022-11-26T07:02:38.224Z,94829.13
2022-11-26T07:05:04.817Z,94813.34
2022-11-26T07:07:31.210Z,94813.06
2022-11-26T07:09:57.613Z,94804.34
2022-11-26T07:12:23.981Z,94781.44
2022-11-26T07:14:50.342Z,94766.41
2022-11-26T07:17:16.771Z,94744.06
2022-11-26T07:19:43.137Z,94712.53
2022-11-26T07:22:09.482Z,94589.72
2022-11-26T07:24:36.030Z,94518.56
2022-11-26T07:27:02.622Z,94411.13
2022-11-26T07:29:29.037Z,94328.22
2022-11-26T07:31:55.496Z,94256.13
2022-11-26T07:34:21.879Z,94179.84
2022-11-26T07:36:48.225Z,94096.50
2022-11-26T07:39:14.615Z,94036.69
2022-11-26T07:41:40.962Z,93978.16
2022-11-26T07:44:13.981Z,93928.53
2022-11-26T07:46:40.453Z,93890.72
2022-11-26T07:49:07.057Z,93840.41
2022-11-26T07:51:33.575Z,93793.19
2022-11-26T07:54:00.415Z,93754.91
2022-11-26T07:56:27.180Z,93723.41
2022-11-26T07:58:53.907Z,93692.28
2022-11-26T08:01:26.953Z,93680.13
2022-11-26T08:03:53.395Z,93682.38
2022-11-26T08:06:21.077Z,93720.09
2022-11-26T08:08:47.531Z,93731.19
2022-11-26T08:11:16.017Z,93714.03
2022-11-26T08:13:42.849Z,93712.88
2022-11-26T08:16:09.311Z,93707.69
2022-11-26T08:18:35.790Z,93685.03
2022-11-26T08:21:02.221Z,93640.13
2022-11-26T08:23:29.131Z,93599.78
2022-11-26T08:28:42.803Z,93519.97
2022-11-26T08:31:09.814Z,93492.91
2022-11-26T08:33:36.249Z,93464.59
2022-11-26T08:36:07.605Z,93446.03
2022-11-26T08:38:34.863Z,93435.66
2022-11-26T08:41:01.958Z,93430.13
2022-11-26T08:43:51.443Z,93425.53
2022-11-26T08:46:14.807Z,93408.78
2022-11-26T08:48:41.293Z,93401.22
2022-11-26T08:51:10.025Z,93386.69
2022-11-26T08:53:36.712Z,93378.75
2022-11-26T08:56:07.762Z,93347.38
2022-11-26T08:58:34.715Z,93326.63
2022-11-26T09:01:08.153Z,93304.28
2022-11-26T09:03:34.758Z,93297.53
2022-11-26T09:06:02.341Z,93291.13
2022-11-26T09:08:45.146Z,93283.91
2022-11-26T09:11:12.160Z,93290.72
2022-11-26T09:13:38.500Z,93292.75
2022-11-26T09:16:05.173Z,93291.53
2022-11-26T09:18:31.567Z,93281.53
2022-11-26T09:21:02.337Z,93283.56
2022-11-26T09:23:28.896Z,93287.56
2022-11-26T09:25:55.337Z,93289.56
2022-11-26T09:28:21.694Z,93280.59
2022-11-26T09:30:48.045Z,93267.78
2022-11-26T09:33:14.446Z,93264.22
2022-11-26T09:35:40.791Z,93259.41
2022-11-26T09:38:07.137Z,93282.00
2022-11-26T09:41:00.387Z,93293.59
2022-11-26T09:43:35.406Z,93307.41
2022-11-26T09:46:01.845Z,93324.22
2022-11-26T09:48:28.889Z,93343.63
2022-11-26T09:51:00.184Z,93360.03
2022-11-26T09:53:28.667Z,93351.25
2022-11-26T09:55:55.607Z,93369.28
2022-11-26T09:58:30.379Z,93389.28
2022-11-26T10:00:58.463Z,93412.31
2022-11-26T10:03:35.698Z,93460.38
2022-11-26T10:06:02.543Z,93495.41
2022-11-26T10:08:59.366Z,93545.47
2022-11-26T10:11:53.675Z,93586.31
2022-11-26T10:14:47.817Z,93646.41
2022-11-26T10:17:34.267Z,93716.19
2022-11-26T10:20:30.083Z,93798.75
2022-11-26T10:23:11.660Z,93874.94
2022-11-26T10:25:52.778Z,93945.13
2022-11-26T10:28:21.070Z,94044.56
2022-11-26T10:30:52.652Z,94133.50
2022-11-26T10:33:19.010Z,94203.28
2022-11-26T10:35:45.393Z,94277.59
2022-11-26T10:38:11.746Z,94362.25
2022-11-26T10:40:38.170Z,94471.38
2022-11-26T10:43:10.225Z,94569.09
2022-11-26T10:45:37.686Z,94646.41
2022-11-26T10:48:14.657Z,94707.53
2022-11-26T10:50:47.742Z,94792.75
2022-11-26T10:53:22.252Z,94886.78
2022-11-26T10:55:48.605Z,94923.94
2022-11-26T10:58:22.813Z,94960.28
2022-11-26T11:00:49.257Z,94978.34
2022-11-26T11:03:51.893Z,94990.25
2022-11-26T11:06:19.065Z,95004.41
2022-11-26T11:08:50.048Z,95020.53
2022-11-26T11:11:21.693Z,95041.09
2022-11-26T11:13:48.276Z,95115.59
2022-11-26T11:16:17.678Z,95164.03
2022-11-26T11:18:52.096Z,95212.44
2022-11-26T11:21:18.965Z,95274.41
2022-11-26T11:24:07.744Z,95322.00
2022-11-26T11:26:39.157Z,95347.78
2022-11-26T11:29:05.494Z,95376.84
2022-11-26T11:31:32.582Z,95403.56
2022-11-26T11:34:13.008Z,95428.03
2022-11-26T11:36:39.365Z,95444.03
2022-11-26T11:39:05.734Z,95456.94
2022-11-26T11:41:47.891Z,95441.78
2022-11-26T11:44:23.816Z,95452.03
2022-11-26T11:47:10.766Z,95455.31
2022-11-26T11:49:49.625Z,95444.72
2022-11-26T11:52:37.417Z,95425.69
2022-11-26T11:55:12.928Z,95483.13
2022-11-26T11:58:10.364Z,95513.31
2022-11-26T12:01:10.858Z,95515.94
2022-11-26T12:03:43.159Z,95530.59
2022-11-26T12:06:09.499Z,95575.63
2022-11-26T12:08:45.036Z,95624.47
2022-11-26T12:11:17.393Z,95709.00
2022-11-26T12:13:49.746Z,95794.03
2022-11-26T12:16:16.733Z,95858.06
2022-11-26T12:18:53.262Z,95936.41
2022-11-26T12:21:27.073Z,96040.47
2022-11-26T12:23:57.594Z,96110.97
2022-11-26T12:26:24.654Z,96139.44
2022-11-26T12:28:54.197Z,96154.13
2022-11-26T12:31:25.620Z,96156.72
2022-11-26T12:33:58.138Z,96146.69
2022-11-26T12:36:38.369Z,96219.53
2022-11-26T12:39:19.101Z,96341.06
2022-11-26T12:41:55.447Z,96426.84
2022-11-26T12:44:29.640Z,96469.19
2022-11-26T12:47:09.264Z,96486.25
2022-11-26T12:49:45.548Z,96523.69
2022-11-26T12:52:24.229Z,96587.47
2022-11-26T12:55:17.853Z,96576.06
2022-11-26T12:57:55.296Z,96581.53
2022-11-26T13:00:36.214Z,96584.16
2022-11-26T13:03:04.581Z,96585.53
2022-11-26T13:05:51.229Z,96596.19
2022-11-26T13:08:21.136Z,96617.75
2022-11-26T13:10:53.172Z,96629.91
2022-11-26T13:13:33.117Z,96637.03
2022-11-26T13:16:20.009Z,96639.38
2022-11-26T13:18:48.591Z,96623.03
2022-11-26T13:21:26.987Z,96665.69
2022-11-26T13:24:13.517Z,96658.41
2022-11-26T13:26:58.525Z,96669.56
2022-11-26T13:29:37.085Z,96677.25
2022-11-26T13:32:12.984Z,96686.06
2022-11-26T13:35:08.888Z,96707.22
2022-11-26T13:37:56.744Z,96721.53
2022-11-26T13:40:39.647Z,96701.97
2022-11-26T13:43:33.602Z,96682.16
2022-11-26T13:46:10.587Z,96671.97
2022-11-26T13:48:45.915Z,96679.53
2022-11-26T13:51:44.387Z,96665.25
2022-11-26T13:54:31.357Z,96689.47
2022-11-26T13:57:03.431Z,96741.75
2022-11-26T13:59:29.800Z,96777.06
2022-11-26T14:01:56.355Z,96786.25
2022-11-26T14:04:48.343Z,96780.31
2022-11-26T14:07:14.936Z,96794.09
2022-11-26T14:09:47.231Z,96791.00
2022-11-26T14:12:14.187Z,96787.69
2022-11-26T14:14:41.865Z,96788.06
2022-11-26T14:17:08.350Z,96804.38
2022-11-26T14:19:40.740Z,96795.41
2022-11-26T14:22:19.682Z,96769.31
2022-11-26T14:24:49.369Z,96733.59
2022-11-26T14:27:19.504Z,96714.03
2022-11-26T14:30:09.240Z,96674.41
2022-11-26T14:32:58.931Z,96648.81
2022-11-26T14:35:30.696Z,96631.75
2022-11-26T14:37:58.955Z,96618.25
2022-11-26T14:40:33.665Z,96592.69
2022-11-26T14:43:22.252Z,96564.84
2022-11-26T14:45:59.063Z,96525.84
2022-11-26T14:48:26.837Z,96484.09
2022-11-26T14:50:53.955Z,96449.44
2022-11-26T14:53:21.097Z,96418.41
2022-11-26T14:55:47.436Z,96388.19
2022-11-26T14:58:26.369Z,96361.53
2022-11-26T15:01:03.199Z,96328.69
2022-11-26T15:03:29.704Z,96316.41
2022-11-26T15:05:56.097Z,96284.25
2022-11-26T15:08:24.765Z,96243.34
2022-11-26T15:10:53.181Z,96218.31
2022-11-26T15:13:23.971Z,96227.72
2022-11-26T15:15:54.308Z,96230.50
2022-11-26T15:18:22.838Z,96199.72
2022-11-26T15:20:50.917Z,96142.41
2022-11-26T15:23:19.012Z,96124.78
2022-11-26T15:25:49.592Z,96114.97
2022-11-26T15:28:20.289Z,96084.63
2022-11-26T15:31:03.225Z,96020.25
2022-11-26T15:33:31.408Z,95965.44
2022-11-26T15:35:57.937Z,95927.09
2022-11-26T15:38:28.706Z,95877.38
2022-11-26T15:41:01.927Z,95860.94
2022-11-26T15:43:30.960Z,95862.94
2022-11-26T15:46:24.742Z,95871.81
2022-11-26T15:48:55.761Z,95889.41
2022-11-26T15:51:35.228Z,95897.00
2022-11-26T15:54:02.547Z,95901.34
2022-11-26T15:56:32.224Z,95906.06
2022-11-26T15:59:00.552Z,95904.25
2022-11-26T16:01:29.018Z,95898.59
2022-11-26T16:03:56.407Z,95912.34
2022-11-26T16:06:40.932Z,95865.34
2022-11-26T16:09:13.695Z,95838.94
2022-11-26T16:11:57.401Z,95759.06
2022-11-26T16:14:26.755Z,95698.38
2022-11-26T16:16:53.180Z,95646.44
2022-11-26T16:19:22.490Z,95629.75
2022-11-26T16:21:52.366Z,95629.72
2022-11-26T16:24:40.112Z,95650.47
2022-11-26T16:27:07.795Z,95666.81
2022-11-26T16:29:35.676Z,95705.84
2022-11-26T16:32:03.104Z,95730.69
2022-11-26T16:34:29.589Z,95763.38
2022-11-26T16:37:01.207Z,95789.97
2022-11-26T16:39:30.481Z,95820.66
2022-11-26T16:41:57.287Z,95844.50
2022-11-26T16:44:23.650Z,95850.59
2022-11-26T16:46:50.664Z,95845.41
2022-11-26T16:49:17.003Z,95845.81
2022-11-26T16:51:43.355Z,95842.88
2022-11-26T16:54:09.717Z,95856.78
2022-11-26T16:56:38.008Z,95858.94
2022-11-26T16:59:17.068Z,95861.03
2022-11-26T17:01:43.425Z,95878.75
2022-11-26T17:04:10.569Z,95898.06
2022-11-26T17:06:37.630Z,95907.88
2022-11-26T17:09:04.082Z,95919.28
2022-11-26T17:11:30.525Z,95938.88
2022-11-26T17:13:56.929Z,95954.06
2022-11-26T17:16:23.543Z,95977.97
2022-11-26T17:18:50.533Z,96005.06
2022-11-26T17:21:16.977Z,96002.47
2022-11-26T17:23:43.346Z,96012.22
2022-11-26T17:26:20.495Z,96003.53
2022-11-26T17:28:47.398Z,95977.63
2022-11-26T17:31:13.909Z,95969.13
2022-11-26T17:33:40.447Z,95961.72
2022-11-26T17:36:19.395Z,95945.00
2022-11-26T17:38:45.951Z,95920.63
2022-11-26T17:41:13.162Z,95879.53
2022-11-26T17:43:39.663Z,95818.00
2022-11-26T17:46:12.580Z,95757.47
2022-11-26T17:48:38.953Z,95693.81
2022-11-26T17:51:05.462Z,95647.88
2022-11-26T17:53:31.837Z,95611.31
2022-11-26T17:55:58.183Z,95575.28
2022-11-26T17:58:24.539Z,95573.31
2022-11-26T18:00:50.911Z,95571.97
2022-11-26T18:03:17.264Z,95571.38
2022-11-26T18:05:43.628Z,95565.50
2022-11-26T18:08:09.994Z,95556.09
2022-11-26T18:10:39.206Z,95551.84
2022-11-26T18:13:05.543Z,95553.06
2022-11-26T18:15:31.910Z,95563.13
2022-11-26T18:17:58.264Z,95571.25
2022-11-26T18:20:25.887Z,95576.97
2022-11-26T18:22:56.916Z,95575.16
2022-11-26T18:25:23.437Z,95586.88
2022-11-26T18:27:49.810Z,95617.50
2022-11-26T18:30:16.969Z,95613.00
2022-11-26T18:32:43.429Z,95604.28
2022-11-26T18:35:09.891Z,95608.78
2022-11-26T18:37:37.384Z,95614.91
2022-11-26T18:40:04.624Z,95616.13
2022-11-26T18:42:38.674Z,95618.25
2022-11-26T18:45:06.911Z,95612.00
2022-11-26T18:47:33.271Z,95616.59
2022-11-26T18:49:59.872Z,95625.44
2022-11-26T18:52:26.289Z,95642.16
2022-11-26T18:54:52.641Z,95647.31
2022-11-26T18:57:19.045Z,95647.31
2022-11-26T18:59:46.638Z,95665.84
2022-11-26T19:02:13.668Z,95662.06
2022-11-26T19:04:40.142Z,95650.63
2022-11-26T19:07:06.616Z,95626.72
2022-11-26T19:09:32.966Z,95584.53
2022-11-26T19:11:59.335Z,95553.22
2022-11-26T19:14:25.712Z,95534.13
2022-11-26T19:16:52.175Z,95513.41
2022-11-26T19:19:18.638Z,95490.78
2022-11-26T19:21:45.033Z,95479.03
2022-11-26T19:24:11.547Z,95472.50
2022-11-26T19:26:38.100Z,95479.13
2022-11-26T19:29:05.202Z,95478.44
2022-11-26T19:31:35.708Z,95479.25
2022-11-26T19:34:05.869Z,95475.84
2022-11-26T19:36:32.992Z,95479.25
2022-11-26T19:39:00.236Z,95471.34
2022-11-26T19:41:26.886Z,95475.13
2022-11-26T19:43:53.336Z,95490.22
2022-11-26T19:46:22.235Z,95510.25
2022-11-26T19:48:49.368Z,95505.78
2022-11-26T19:51:16.627Z,95497.75
2022-11-26T19:53:43.129Z,95485.63
2022-11-26T19:56:12.840Z,95468.09
2022-11-26T19:58:39.177Z,95455.81
2022-11-26T20:01:06.413Z,95452.16
2022-11-26T20:03:37.241Z,95434.56
2022-11-26T20:06:05.973Z,95421.38
2022-11-26T20:08:33.459Z,95407.34
2022-11-26T20:11:03.927Z,95392.38
2022-11-26T20:13:30.280Z,95373.72
2022-11-26T20:15:56.613Z,95356.97
2022-11-26T20:18:23.101Z,95356.97
2022-11-26T20:20:59.688Z,95354.63
2022-11-26T20:23:26.778Z,95351.09
2022-11-26T20:25:53.351Z,95346.88
2022-11-26T20:28:19.721Z,95338.97
2022-11-26T20:30:46.399Z,95341.44
2022-11-26T20:33:12.887Z,95344.41
2022-11-26T20:35:40.136Z,95341.69
2022-11-26T20:38:06.923Z,95341.44
2022-11-26T20:40:33.285Z,95345.78
2022-11-26T20:42:59.730Z,95344.28
2022-11-26T20:45:26.182Z,95340.06
2022-11-26T20:47:52.540Z,95341.81
2022-11-26T20:50:18.888Z,95352.59
2022-11-26T20:52:45.256Z,95350.94
2022-11-26T20:55:11.649Z,95342.47
2022-11-26T20:57:38.099Z,95338.69
2022-11-26T21:00:05.542Z,95323.13
2022-11-26T21:02:32.084Z,95319.59
2022-11-26T21:05:00.452Z,95328.56
2022-11-26T21:07:29.361Z,95343.69
2022-11-26T21:09:56.451Z,95343.69
2022-11-26T21:12:22.810Z,95334.97
2022-11-26T21:14:49.180Z,95348.19
2022-11-26T21:17:15.699Z,95345.16
2022-11-26T21:19:42.266Z,95354.72
2022-11-26T21:22:08.733Z,95362.84
2022-11-26T21:24:37.014Z,95362.19
2022-11-26T21:27:03.440Z,95377.28
2022-11-26T21:29:30.212Z,95372.09
2022-11-26T21:31:56.687Z,95387.88
2022-11-26T21:34:23.151Z,95412.91
2022-11-26T21:36:49.586Z,95434.13
2022-11-26T21:39:16.020Z,95465.00
2022-11-26T21:41:42.485Z,95475.84
2022-11-26T21:44:08.898Z,95504.53
2022-11-26T21:46:38.506Z,95542.19
2022-11-26T21:49:05.090Z,95590.22
2022-11-26T21:51:31.536Z,95623.38
2022-11-26T21:53:58.132Z,95652.06
2022-11-26T21:56:29.109Z,95684.25
2022-11-26T21:58:56.904Z,95712.72
2022-11-26T22:01:31.449Z,95732.72
2022-11-26T22:03:59.846Z,95771.25
2022-11-26T22:06:26.368Z,95816.59
2022-11-26T22:08:52.725Z,95867.81
2022-11-26T22:11:21.380Z,95894.84
2022-11-26T22:13:47.803Z,95921.41
2022-11-26T22:16:17.713Z,95966.03
2022-11-26T22:18:44.747Z,95982.47
2022-11-26T22:21:16.448Z,96016.50
2022-11-26T22:23:42.967Z,96061.81
2022-11-26T22:26:09.470Z,96096.34
2022-11-26T22:28:35.881Z,96113.69
2022-11-26T22:31:25.220Z,96124.47
2022-11-26T22:33:54.939Z,96142.75
2022-11-26T22:36:21.378Z,96143.50
2022-11-26T22:38:47.767Z,96135.31
2022-11-26T22:41:14.390Z,96122.38
2022-11-26T22:43:41.181Z,96101.72
2022-11-26T22:46:12.318Z,96105.25
2022-11-26T22:48:38.768Z,96123.00
2022-11-26T22:51:05.341Z,96142.22
2022-11-26T22:53:33.420Z,96169.41
2022-11-26T22:56:00.372Z,96204.34
2022-11-26T22:58:27.145Z,96212.91
2022-11-26T23:00:58.421Z,96213.72
2022-11-26T23:03:26.135Z,96210.84
2022-11-26T23:05:52.694Z,96225.00
2022-11-26T23:08:19.369Z,96258.97
2022-11-26T23:10:45.751Z,96300.91
2022-11-26T23:13:12.627Z,96339.06
2022-11-26T23:15:44.476Z,96358.28
2022-11-26T23:18:12.304Z,96352.91
2022-11-26T23:20:38.698Z,96333.72
2022-11-26T23:23:05.114Z,96329.50
2022-11-26T23:25:31.522Z,96313.25
2022-11-26T23:27:57.908Z,96308.28
2022-11-26T23:30:24.399Z,96309.94
2022-11-26T23:32:50.773Z,96301.25
2022-11-26T23:35:17.206Z,96306.66
2022-11-26T23:37:43.604Z,96297.97
2022-11-26T23:40:10.558Z,96273.59
2022-11-26T23:42:36.906Z,96268.63
2022-11-26T23:45:03.468Z,96235.59
2022-11-26T23:47:29.827Z,96204.59
2022-11-26T23:50:00.767Z,96205.00
2022-11-26T23:52:27.467Z,96220.91
2022-11-26T23:54:53.812Z,96242.16
2022-11-26T23:57:20.481Z,96280.59
2022-11-26T23:59:46.873Z,96291.03
